Time;durP1;ratioP1;P1;durP2;ratioP2;P2;SDS_P1;SDS_P2;PMS_P1;PMS_P2;Temp;Humidity;BMP_temperature;BMP_pressure;BME280_temperature;BME280_humidity;BME280_pressure;Samples;Min_cycle;Max_cycle;Signal;HPM_P1;HPM_P2
2023/08/16 00:00:30;;;;;;;3.92;1.48;;;;;;;22.07;56.24;101828.31;5042938;28;20057;-62
2023/08/16 00:02:58;;;;;;;6.53;1.85;;;;;;;22.01;56.19;101817.63;5043849;28;20076;-62
2023/08/16 00:05:26;;;;;;;6.15;1.58;;;;;;;22.05;56.31;101825.03;5053737;28;20052;-62
2023/08/16 00:07:54;;;;;;;3.85;1.77;;;;;;;22.03;56.36;101824.47;5042867;28;20050;-63
2023/08/16 00:10:22;;;;;;;3.08;1.58;;;;;;;22.03;56.48;101820.94;5043431;28;20050;-62
2023/08/16 00:12:49;;;;;;;10.57;1.90;;;;;;;22.01;56.33;101823.91;5062616;28;20590;-63
2023/08/16 00:15:19;;;;;;;4.68;1.80;;;;;;;22.00;56.27;101826.91;5062642;27;20065;-62
2023/08/16 00:17:47;;;;;;;3.28;1.48;;;;;;;21.99;56.57;101822.53;5062718;28;20098;-62
2023/08/16 00:20:17;;;;;;;3.67;1.73;;;;;;;21.98;56.57;101813.50;5056855;28;20105;-60
2023/08/16 00:22:44;;;;;;;2.88;1.70;;;;;;;21.97;56.71;101819.25;5062463;28;20045;-62
2023/08/16 00:25:12;;;;;;;3.65;1.55;;;;;;;21.95;56.49;101816.78;5042447;28;20630;-62
2023/08/16 00:27:41;;;;;;;2.35;1.60;;;;;;;21.95;56.60;101819.53;5074595;28;20051;-62
2023/08/16 00:30:10;;;;;;;3.90;1.83;;;;;;;21.94;56.54;101815.16;5054618;28;20045;-62
2023/08/16 00:32:41;;;;;;;3.88;1.45;;;;;;;21.93;56.53;101818.97;5062313;28;20056;-62
2023/08/16 00:35:09;;;;;;;3.78;1.83;;;;;;;21.92;56.74;101822.81;5061022;28;20045;-63
2023/08/16 00:37:37;;;;;;;5.20;1.75;;;;;;;21.92;57.03;101832.94;5110527;28;20404;-62
2023/08/16 00:40:07;;;;;;;4.80;1.63;;;;;;;21.90;56.82;101829.66;5146683;28;20058;-62
2023/08/16 00:42:35;;;;;;;4.20;1.83;;;;;;;21.90;56.86;101829.66;5146145;28;20116;-62
2023/08/16 00:45:03;;;;;;;7.07;1.90;;;;;;;21.90;56.71;101825.00;5096928;28;20053;-61
2023/08/16 00:47:31;;;;;;;6.93;2.05;;;;;;;21.88;56.96;101827.19;5062303;28;20056;-62
2023/08/16 00:50:00;;;;;;;3.88;1.70;;;;;;;21.88;57.03;101832.66;5053123;28;20049;-63
2023/08/16 00:52:29;;;;;;;5.13;1.63;;;;;;;21.87;57.11;101835.69;5042243;28;20054;-62
2023/08/16 00:54:57;;;;;;;2.83;1.58;;;;;;;21.86;57.25;101837.59;5052118;28;20049;-62
2023/08/16 00:57:25;;;;;;;5.50;1.60;;;;;;;21.86;56.93;101844.97;5062630;28;20098;-62
2023/08/16 00:59:53;;;;;;;2.95;1.55;;;;;;;21.86;57.06;101850.47;5052383;28;20049;-62
2023/08/16 01:02:21;;;;;;;3.20;1.50;;;;;;;21.85;57.23;101848.81;5045600;28;20081;-62
2023/08/16 01:04:49;;;;;;;3.88;1.92;;;;;;;21.84;57.26;101848.00;5045650;28;20167;-62
2023/08/16 01:07:18;;;;;;;3.88;1.80;;;;;;;21.83;57.14;101851.00;5045788;28;20038;-62
2023/08/16 01:09:46;;;;;;;3.53;1.80;;;;;;;21.82;57.15;101850.19;5045512;28;20073;-62
2023/08/16 01:12:23;;;;;;;3.33;1.80;;;;;;;21.81;57.21;101848.53;5045243;28;20574;-62
2023/08/16 01:14:56;;;;;;;6.47;2.63;;;;;;;21.81;57.20;101848.53;5053332;28;20053;-62
2023/08/16 01:17:26;;;;;;;3.10;1.80;;;;;;;21.80;57.41;101844.16;5046604;28;20060;-62
2023/08/16 01:19:56;;;;;;;3.72;1.90;;;;;;;21.80;57.16;101860.56;5063381;28;20049;-62
2023/08/16 01:22:34;;;;;;;6.03;2.08;;;;;;;21.79;57.40;101860.84;5064161;28;20053;-63
2023/08/16 01:25:12;;;;;;;4.85;1.85;;;;;;;21.79;57.22;101858.94;5045163;28;20358;-62
2023/08/16 01:27:43;;;;;;;4.32;1.60;;;;;;;21.78;57.23;101865.50;5089469;27;20561;-62
2023/08/16 01:30:12;;;;;;;4.72;1.90;;;;;;;21.76;56.99;101864.94;5126401;27;20061;-62
2023/08/16 01:32:40;;;;;;;2.20;1.48;;;;;;;21.76;57.26;101876.72;5065006;28;20049;-62
2023/08/16 01:35:08;;;;;;;3.75;1.92;;;;;;;21.75;57.40;101864.13;5065167;28;20055;-62
2023/08/16 01:37:36;;;;;;;4.38;1.85;;;;;;;21.75;57.28;101869.59;5056464;28;20052;-62
2023/08/16 01:40:08;;;;;;;4.07;1.70;;;;;;;21.74;57.32;101867.97;5065152;27;20053;-62
2023/08/16 01:42:40;;;;;;;3.45;1.35;;;;;;;21.74;57.22;101862.50;5064644;28;20094;-63
2023/08/16 01:45:10;;;;;;;2.72;1.50;;;;;;;21.73;57.19;101863.59;5063550;28;20046;-61
2023/08/16 01:47:38;;;;;;;4.90;1.88;;;;;;;21.73;57.61;101866.31;5064905;28;20098;-62
2023/08/16 01:50:07;;;;;;;4.10;1.83;;;;;;;21.72;57.34;101872.06;5054975;28;20113;-61
2023/08/16 01:52:36;;;;;;;4.57;1.60;;;;;;;21.69;57.59;101861.66;5046271;28;20487;-62
2023/08/16 01:55:05;;;;;;;6.57;2.22;;;;;;;21.71;57.46;101873.16;5048386;28;20045;-62
2023/08/16 01:57:33;;;;;;;5.30;2.05;;;;;;;21.70;57.53;101874.25;5064512;28;20053;-62
2023/08/16 02:00:01;;;;;;;5.95;1.85;;;;;;;21.68;57.51;101858.09;5055297;28;20050;-62
2023/08/16 02:02:30;;;;;;;3.70;2.13;;;;;;;21.68;57.72;101857.28;5047865;28;20053;-62
2023/08/16 02:04:58;;;;;;;3.95;1.88;;;;;;;21.66;57.78;101865.75;5044442;28;20388;-63
2023/08/16 02:07:26;;;;;;;4.95;1.98;;;;;;;21.65;57.80;101869.59;5044736;28;20053;-63
2023/08/16 02:09:54;;;;;;;2.83;1.60;;;;;;;21.64;57.78;101878.06;5043828;28;20076;-62
2023/08/16 02:12:22;;;;;;;4.85;1.90;;;;;;;21.64;57.71;101867.13;5043800;28;20094;-62
2023/08/16 02:14:50;;;;;;;3.40;1.77;;;;;;;21.62;57.69;101870.13;5044594;28;20114;-62
2023/08/16 02:17:18;;;;;;;3.55;1.70;;;;;;;21.62;57.77;101872.03;5044744;28;20053;-62
2023/08/16 02:19:48;;;;;;;3.60;1.80;;;;;;;21.60;57.64;101868.75;5064646;28;20045;-62
2023/08/16 02:22:15;;;;;;;6.43;2.17;;;;;;;21.60;57.91;101858.63;5064183;28;20049;-62
2023/08/16 02:24:44;;;;;;;4.55;1.70;;;;;;;21.60;57.93;101868.75;5047688;27;20054;-62
2023/08/16 02:27:12;;;;;;;4.97;2.10;;;;;;;21.59;57.87;101867.94;5059494;27;20047;-62
2023/08/16 02:29:40;;;;;;;3.58;2.17;;;;;;;21.57;57.91;101859.19;5064371;28;20097;-63
2023/08/16 02:32:08;;;;;;;4.63;2.10;;;;;;;21.57;57.82;101861.09;5064062;28;20455;-62
2023/08/16 02:34:35;;;;;;;4.93;2.10;;;;;;;21.56;57.96;101862.19;5062622;28;20049;-62
2023/08/16 02:37:05;;;;;;;4.20;1.60;;;;;;;21.54;58.10;101856.97;5092751;27;20051;-63
2023/08/16 02:39:32;;;;;;;4.35;2.20;;;;;;;21.54;58.07;101859.72;5148710;27;20043;-62
2023/08/16 02:42:01;;;;;;;3.83;1.70;;;;;;;21.53;57.96;101857.25;5113194;27;20073;-62
2023/08/16 02:44:28;;;;;;;3.75;1.70;;;;;;;21.52;58.08;101853.69;5063928;28;20534;-62
2023/08/16 02:46:56;;;;;;;4.15;1.58;;;;;;;21.50;58.11;101855.06;5064023;28;20052;-62
2023/08/16 02:49:24;;;;;;;3.65;1.70;;;;;;;21.50;58.02;101849.59;5059595;28;20053;-62
2023/08/16 02:51:52;;;;;;;4.88;1.88;;;;;;;21.47;58.18;101864.63;5043980;28;20053;-62
2023/08/16 02:54:21;;;;;;;5.43;2.05;;;;;;;21.46;58.26;101871.19;5041303;28;20070;-62
2023/08/16 02:56:49;;;;;;;6.13;2.10;;;;;;;21.44;58.42;101876.94;5062633;27;20060;-62
2023/08/16 02:59:17;;;;;;;7.45;2.22;;;;;;;21.42;58.55;101870.91;5044239;28;20049;-62
2023/08/16 03:01:45;;;;;;;4.00;1.90;;;;;;;21.43;58.54;101871.72;5043197;28;20049;-62
2023/08/16 03:04:13;;;;;;;2.60;1.80;;;;;;;21.41;58.53;101872.00;5043944;28;20053;-62
2023/08/16 03:06:41;;;;;;;5.07;2.55;;;;;;;21.41;58.61;101868.44;5054850;28;20052;-62
2023/08/16 03:09:09;;;;;;;4.70;2.67;;;;;;;21.39;58.60;101865.16;5051238;28;20411;-62
2023/08/16 03:11:38;;;;;;;4.80;2.35;;;;;;;21.39;58.71;101873.34;5054861;27;20139;-62
2023/08/16 03:14:06;;;;;;;8.52;2.28;;;;;;;21.38;58.79;101867.06;5063712;28;20052;-62
2023/08/16 03:16:34;;;;;;;4.00;2.25;;;;;;;21.38;58.61;101875.28;5063502;28;20100;-62
2023/08/16 03:19:02;;;;;;;4.85;2.08;;;;;;;21.37;58.74;101870.88;5063496;28;20045;-62
2023/08/16 03:21:30;;;;;;;6.18;2.30;;;;;;;21.37;58.74;101870.06;5048605;27;20053;-62
2023/08/16 03:23:58;;;;;;;3.72;2.40;;;;;;;21.36;58.83;101865.69;5046206;28;20045;-61
2023/08/16 03:26:26;;;;;;;5.85;2.72;;;;;;;21.34;58.63;101865.97;5053911;28;20061;-62
2023/08/16 03:28:55;;;;;;;5.03;2.38;;;;;;;21.34;58.79;101871.44;5120085;27;20041;-63
2023/08/16 03:31:23;;;;;;;4.35;2.50;;;;;;;21.34;58.75;101867.88;5063161;28;20049;-62
2023/08/16 03:33:51;;;;;;;4.93;2.42;;;;;;;21.32;58.96;101870.88;5061812;28;20088;-62
2023/08/16 03:36:19;;;;;;;5.32;2.70;;;;;;;21.32;58.93;101870.88;5066106;27;20049;-63
2023/08/16 03:38:47;;;;;;;6.07;2.38;;;;;;;21.32;58.76;101870.06;5125614;27;20062;-63
2023/08/16 03:41:15;;;;;;;5.78;2.75;;;;;;;21.23;59.07;101866.19;5062906;27;20056;-63
2023/08/16 03:43:43;;;;;;;3.75;2.30;;;;;;;21.29;59.02;101874.16;5061776;28;20045;-63
2023/08/16 03:46:12;;;;;;;7.20;2.90;;;;;;;21.27;59.00;101879.06;5063036;27;20056;-63
2023/08/16 03:48:40;;;;;;;6.28;2.65;;;;;;;21.27;58.98;101881.78;5063094;28;20053;-63
2023/08/16 03:51:08;;;;;;;5.80;3.03;;;;;;;21.28;58.86;101885.34;5044264;28;20049;-63
2023/08/16 03:53:35;;;;;;;4.25;2.53;;;;;;;21.27;58.91;101881.78;5039184;28;20045;-63
2023/08/16 03:56:04;;;;;;;3.15;2.35;;;;;;;21.26;59.04;101882.88;5062664;28;20075;-63
2023/08/16 03:58:32;;;;;;;4.93;2.53;;;;;;;21.26;58.81;101877.41;5059764;28;20050;-63
2023/08/16 04:00:59;;;;;;;6.35;2.70;;;;;;;21.26;58.93;101876.59;5042741;28;20053;-63
2023/08/16 04:03:29;;;;;;;6.43;3.13;;;;;;;21.25;58.82;101880.41;5043200;28;20053;-63
2023/08/16 04:05:57;;;;;;;6.65;2.80;;;;;;;21.24;58.98;101882.34;5042948;28;20049;-63
2023/08/16 04:08:24;;;;;;;7.75;2.80;;;;;;;21.23;58.95;101885.34;5042887;28;20045;-63
2023/08/16 04:10:52;;;;;;;4.20;2.85;;;;;;;21.22;58.90;101883.69;5042360;28;20053;-62
2023/08/16 04:13:20;;;;;;;6.40;2.70;;;;;;;21.21;58.96;101891.03;5057046;28;20064;-62
2023/08/16 04:15:49;;;;;;;7.00;3.28;;;;;;;21.20;59.02;101894.88;5062499;28;20109;-62
2023/08/16 04:18:16;;;;;;;4.93;2.20;;;;;;;21.18;59.03;101891.56;5062760;28;20101;-62
2023/08/16 04:20:46;;;;;;;7.35;3.20;;;;;;;21.17;58.89;101898.13;5054602;28;20057;-62
2023/08/16 04:23:14;;;;;;;8.20;2.85;;;;;;;21.16;59.13;101909.34;5042917;28;20110;-62
2023/08/16 04:25:41;;;;;;;6.60;2.65;;;;;;;21.15;58.79;101903.03;5041856;28;20053;-61
2023/08/16 04:28:09;;;;;;;7.25;2.95;;;;;;;21.13;59.03;101894.28;5100080;28;20047;-62
2023/08/16 04:30:37;;;;;;;5.88;2.88;;;;;;;21.12;58.94;101898.94;5041728;28;20173;-62
2023/08/16 04:33:05;;;;;;;4.20;2.58;;;;;;;21.12;58.97;101895.38;5046494;28;20049;-62
2023/08/16 04:35:33;;;;;;;6.07;2.97;;;;;;;21.10;58.97;101892.91;5061250;28;20053;-62
2023/08/16 04:38:03;;;;;;;5.22;2.65;;;;;;;21.11;58.97;101893.72;5114010;28;20100;-61
2023/08/16 04:40:31;;;;;;;5.05;2.80;;;;;;;21.09;58.99;101895.91;5116017;28;20056;-61
2023/08/16 04:42:59;;;;;;;6.85;2.70;;;;;;;21.06;59.07;101883.59;5061947;28;20074;-61
2023/08/16 04:45:27;;;;;;;5.28;2.63;;;;;;;21.06;59.02;101888.25;5049715;28;20054;-63
2023/08/16 04:47:55;;;;;;;7.00;2.80;;;;;;;21.05;59.14;101898.34;5042489;28;20053;-62
2023/08/16 04:50:23;;;;;;;7.38;2.55;;;;;;;21.04;59.09;101898.63;5041350;28;20049;-63
2023/08/16 04:52:50;;;;;;;6.38;2.88;;;;;;;21.03;59.03;101903.25;5039777;28;20070;-63
2023/08/16 04:55:20;;;;;;;7.45;3.00;;;;;;;21.02;59.10;101889.84;5049980;28;20060;-63
2023/08/16 04:57:49;;;;;;;6.68;3.15;;;;;;;21.02;59.13;101898.06;5061656;28;20061;-62
2023/08/16 05:00:19;;;;;;;8.35;3.53;;;;;;;20.99;59.06;101893.13;5061195;27;20045;-63
2023/08/16 05:02:47;;;;;;;6.43;3.45;;;;;;;20.98;59.12;101895.03;5051505;28;20052;-62
2023/08/16 05:05:15;;;;;;;5.85;3.03;;;;;;;20.98;59.13;101902.41;5054921;28;20049;-62
2023/08/16 05:07:43;;;;;;;4.75;3.25;;;;;;;20.97;59.12;101895.31;5042178;28;20109;-62
2023/08/16 05:10:11;;;;;;;8.65;3.28;;;;;;;20.95;59.23;101898.31;5049582;28;20049;-63
2023/08/16 05:12:40;;;;;;;6.80;3.40;;;;;;;20.95;59.15;101900.22;5061365;28;20045;-63
2023/08/16 05:15:10;;;;;;;8.25;3.10;;;;;;;20.94;59.19;101906.75;5061972;28;20049;-62
2023/08/16 05:17:38;;;;;;;5.95;2.67;;;;;;;20.94;59.14;101910.31;5052433;28;20045;-61
2023/08/16 05:20:08;;;;;;;6.18;3.03;;;;;;;20.92;58.92;101906.22;5056952;28;20045;-62
2023/08/16 05:22:36;;;;;;;5.25;2.85;;;;;;;20.90;59.06;101901.00;5061600;27;20052;-62
2023/08/16 05:25:05;;;;;;;6.13;3.28;;;;;;;20.91;58.93;101904.56;5054234;28;20049;-63
2023/08/16 05:27:33;;;;;;;3.92;2.63;;;;;;;20.90;58.99;101911.94;5082243;28;20549;-62
2023/08/16 05:30:02;;;;;;;6.70;3.00;;;;;;;20.89;58.96;101923.97;5064433;28;20045;-62
2023/08/16 05:32:30;;;;;;;7.43;2.95;;;;;;;20.90;58.91;101916.59;5061386;28;20078;-62
2023/08/16 05:34:58;;;;;;;7.35;2.72;;;;;;;20.89;58.99;101917.66;5061709;28;20049;-62
2023/08/16 05:37:25;;;;;;;5.68;2.67;;;;;;;20.88;58.76;101918.75;5056595;28;20053;-61
2023/08/16 05:39:54;;;;;;;8.68;2.72;;;;;;;20.87;58.83;101928.03;5061933;28;20045;-63
2023/08/16 05:42:22;;;;;;;4.25;2.50;;;;;;;20.87;58.89;101928.03;5061252;28;20056;-63
2023/08/16 05:44:50;;;;;;;5.60;2.80;;;;;;;20.86;58.93;101929.94;5061481;28;20102;-62
2023/08/16 05:47:19;;;;;;;4.05;2.33;;;;;;;20.86;58.96;101937.31;5049923;28;20121;-62
2023/08/16 05:49:47;;;;;;;6.78;2.75;;;;;;;20.85;58.88;101938.41;5044989;28;20045;-62
2023/08/16 05:52:15;;;;;;;4.97;2.55;;;;;;;20.86;58.94;101938.16;5058198;27;20053;-63
2023/08/16 05:54:42;;;;;;;6.20;3.17;;;;;;;20.86;58.98;101948.25;5055540;28;20070;-62
2023/08/16 05:57:10;;;;;;;5.20;2.35;;;;;;;20.85;59.00;101941.16;5058081;28;20099;-62
2023/08/16 05:59:39;;;;;;;7.25;2.17;;;;;;;20.84;58.87;101944.97;5044897;28;20113;-62
2023/08/16 06:02:07;;;;;;;6.30;2.88;;;;;;;20.83;58.93;101933.22;5044704;28;20049;-62
2023/08/16 06:04:37;;;;;;;6.22;2.58;;;;;;;20.83;58.88;101937.84;5062549;28;20098;-62
2023/08/16 06:07:06;;;;;;;4.55;2.65;;;;;;;20.82;58.87;101949.88;5044667;28;20050;-61
2023/08/16 06:09:34;;;;;;;6.15;2.60;;;;;;;20.80;58.89;101933.78;5055455;28;20049;-62
2023/08/16 06:12:02;;;;;;;6.78;2.85;;;;;;;20.79;58.98;101943.06;5064114;28;20049;-62
2023/08/16 06:14:29;;;;;;;7.53;2.40;;;;;;;20.78;58.83;101939.50;5063293;28;20074;-62
2023/08/16 06:16:57;;;;;;;4.55;2.20;;;;;;;20.75;58.72;101925.53;5048234;28;20041;-62
2023/08/16 06:19:25;;;;;;;5.65;2.70;;;;;;;20.76;58.98;101938.13;5064412;28;20156;-62
2023/08/16 06:21:55;;;;;;;7.03;2.88;;;;;;;20.76;58.94;101947.13;5064020;28;20506;-62
2023/08/16 06:24:23;;;;;;;7.28;2.65;;;;;;;20.75;59.00;101939.19;5050573;28;20461;-62
2023/08/16 06:26:51;;;;;;;9.32;2.72;;;;;;;20.75;58.98;101939.19;5047496;28;20057;-62
2023/08/16 06:29:18;;;;;;;7.47;2.60;;;;;;;20.74;59.05;101937.56;5064375;28;20053;-63
2023/08/16 06:31:48;;;;;;;4.70;2.13;;;;;;;20.74;58.93;101940.28;5064067;28;20045;-63
2023/08/16 06:34:16;;;;;;;4.93;2.90;;;;;;;20.73;59.04;101935.91;5112269;27;20045;-63
2023/08/16 06:36:44;;;;;;;5.35;2.70;;;;;;;20.71;58.92;101930.72;5081706;27;20066;-63
2023/08/16 06:39:14;;;;;;;5.15;2.47;;;;;;;20.71;58.98;101936.19;5148813;27;20171;-63
2023/08/16 06:41:42;;;;;;;3.97;2.28;;;;;;;20.72;59.18;101948.75;5148152;27;20051;-63
2023/08/16 06:44:10;;;;;;;5.35;2.40;;;;;;;20.72;58.90;101959.69;5028066;28;20050;-62
2023/08/16 06:46:37;;;;;;;5.07;2.13;;;;;;;20.73;59.03;101963.22;5064026;28;20085;-63
2023/08/16 06:49:05;;;;;;;3.63;2.20;;;;;;;20.73;59.04;101972.25;5054999;28;20172;-63
2023/08/16 06:51:33;;;;;;;6.63;2.30;;;;;;;20.73;59.15;101965.97;5043731;28;20053;-63
2023/08/16 06:54:01;;;;;;;4.05;2.25;;;;;;;20.72;59.00;101970.59;5044617;28;20069;-63
2023/08/16 06:56:30;;;;;;;7.47;2.53;;;;;;;20.71;59.16;101960.75;5043122;28;20071;-63
2023/08/16 06:58:58;;;;;;;8.27;2.33;;;;;;;20.71;59.07;101955.28;5043995;28;20176;-63
2023/08/16 07:01:27;;;;;;;4.15;2.20;;;;;;;20.71;59.00;101949.00;5053975;28;20045;-63
2023/08/16 07:03:56;;;;;;;4.13;2.35;;;;;;;20.69;59.05;101938.34;5063601;28;20102;-61
2023/08/16 07:06:26;;;;;;;3.90;2.15;;;;;;;20.70;58.89;101936.44;5053946;27;20071;-62
2023/08/16 07:08:54;;;;;;;5.20;2.05;;;;;;;20.72;58.99;101950.66;5063765;28;20052;-63
2023/08/16 07:11:22;;;;;;;7.72;2.08;;;;;;;20.73;59.04;101958.59;5063074;27;20073;-63
2023/08/16 07:13:52;;;;;;;4.75;1.88;;;;;;;20.75;59.03;101969.25;5049099;28;20052;-63
2023/08/16 07:16:20;;;;;;;5.53;2.00;;;;;;;20.77;59.21;101978.84;5043257;28;20078;-63
2023/08/16 07:18:48;;;;;;;7.63;2.08;;;;;;;20.79;58.96;101973.09;5053046;28;20073;-63
2023/08/16 07:21:19;;;;;;;8.60;2.15;;;;;;;20.83;58.84;101976.09;5063081;28;20052;-62
2023/08/16 07:23:47;;;;;;;4.90;1.95;;;;;;;20.84;58.85;101972.28;5054291;27;20045;-62
2023/08/16 07:26:15;;;;;;;4.25;2.20;;;;;;;20.86;58.78;101970.94;5043032;28;20053;-62
2023/08/16 07:28:43;;;;;;;7.53;2.08;;;;;;;20.86;58.81;101984.59;5079841;27;20045;-62
2023/08/16 07:31:12;;;;;;;4.65;1.63;;;;;;;20.88;58.86;101974.22;5063178;28;20045;-62
2023/08/16 07:33:41;;;;;;;4.60;1.67;;;;;;;20.89;58.84;101970.41;5054912;28;20075;-62
2023/08/16 07:36:09;;;;;;;4.10;1.90;;;;;;;20.92;58.75;101975.34;5063136;28;20078;-62
2023/08/16 07:38:37;;;;;;;5.30;1.90;;;;;;;20.92;58.80;101972.63;5043563;28;20056;-62
2023/08/16 07:41:05;;;;;;;4.70;2.15;;;;;;;20.94;58.73;101967.72;5042899;28;20050;-62
2023/08/16 07:43:33;;;;;;;5.10;2.13;;;;;;;20.94;58.68;101973.19;5042270;28;20079;-61
2023/08/16 07:46:00;;;;;;;3.22;1.85;;;;;;;20.97;58.77;101969.09;5042960;28;20071;-62
2023/08/16 07:48:30;;;;;;;5.53;2.28;;;;;;;20.98;58.95;101973.47;5043160;28;20049;-62
2023/08/16 07:50:58;;;;;;;3.30;1.48;;;;;;;20.98;58.99;101979.75;5042778;28;20061;-62
2023/08/16 07:53:26;;;;;;;10.07;2.25;;;;;;;20.99;58.79;101981.41;5042673;28;20110;-62
2023/08/16 07:55:54;;;;;;;3.67;1.80;;;;;;;21.02;58.86;101985.53;5042758;28;20053;-61
2023/08/16 07:58:22;;;;;;;7.32;1.60;;;;;;;21.03;59.03;101981.72;5045618;28;20370;-62
2023/08/16 08:00:53;;;;;;;4.93;1.60;;;;;;;21.04;59.12;101986.91;5062723;28;20052;-62
2023/08/16 08:03:22;;;;;;;7.97;1.92;;;;;;;21.05;59.17;101977.63;5061303;27;20097;-62
2023/08/16 08:05:53;;;;;;;6.85;1.63;;;;;;;21.06;59.24;101987.47;5050340;28;20079;-62
2023/08/16 08:08:21;;;;;;;4.20;1.38;;;;;;;21.08;59.17;101979.81;5041991;28;20053;-62
2023/08/16 08:10:48;;;;;;;3.97;1.40;;;;;;;21.10;59.25;101983.13;5042295;28;20074;-62
2023/08/16 08:13:16;;;;;;;6.60;1.63;;;;;;;21.09;59.18;101976.00;5042315;28;20075;-62
2023/08/16 08:15:44;;;;;;;3.60;1.50;;;;;;;21.11;59.15;101978.47;5042552;28;20506;-62
2023/08/16 08:18:12;;;;;;;4.80;1.70;;;;;;;21.12;59.21;101985.59;5043904;28;20054;-62
2023/08/16 08:20:40;;;;;;;3.20;1.20;;;;;;;21.12;59.18;101975.47;5062624;28;20060;-63
2023/08/16 08:23:10;;;;;;;4.63;1.60;;;;;;;21.15;59.19;101984.25;5058878;28;20070;-63
2023/08/16 08:25:41;;;;;;;3.70;1.40;;;;;;;21.16;59.16;101983.97;5042210;28;20061;-63
2023/08/16 08:28:09;;;;;;;4.45;1.92;;;;;;;21.18;59.01;101997.38;5107651;28;20072;-63
2023/08/16 08:30:37;;;;;;;3.10;1.48;;;;;;;21.19;59.08;102002.59;5146780;28;20054;-63
2023/08/16 08:33:05;;;;;;;3.92;1.30;;;;;;;21.18;58.93;102003.66;5088206;28;20049;-63
2023/08/16 08:35:34;;;;;;;3.60;1.50;;;;;;;21.19;58.98;101996.28;5050392;28;20555;-62
2023/08/16 08:38:03;;;;;;;6.30;1.65;;;;;;;21.11;58.72;101992.97;5112279;28;20047;-63
2023/08/16 08:40:33;;;;;;;3.72;1.48;;;;;;;21.18;58.70;102003.66;5062293;28;20045;-63
2023/08/16 08:43:01;;;;;;;4.60;1.88;;;;;;;21.19;59.07;102008.06;5061899;28;20486;-63
2023/08/16 08:45:29;;;;;;;2.97;1.17;;;;;;;21.19;59.05;101999.84;5059362;28;20049;-63
2023/08/16 08:47:57;;;;;;;3.85;1.70;;;;;;;21.21;59.08;102008.59;5058573;28;20451;-62
2023/08/16 08:50:26;;;;;;;6.75;2.20;;;;;;;21.23;59.16;102011.94;5049492;28;20053;-62
2023/08/16 08:52:56;;;;;;;4.50;1.70;;;;;;;21.24;59.13;102016.31;5041674;28;20067;-63
2023/08/16 08:55:30;;;;;;;3.60;1.60;;;;;;;21.26;59.12;102016.88;5056426;28;20057;-62
2023/08/16 08:58:02;;;;;;;5.70;2.35;;;;;;;21.19;59.29;102004.50;5061897;28;20051;-62
2023/08/16 09:00:34;;;;;;;5.55;1.92;;;;;;;21.27;59.27;102020.44;5054722;28;20046;-62
2023/08/16 09:03:07;;;;;;;5.15;1.50;;;;;;;21.29;59.17;102015.53;5042228;28;20042;-62
2023/08/16 09:05:38;;;;;;;7.63;1.40;;;;;;;21.28;59.26;102019.34;5042196;28;20077;-63
2023/08/16 09:08:06;;;;;;;3.60;1.92;;;;;;;21.29;59.22;102018.25;5044977;28;20044;-63
2023/08/16 09:10:37;;;;;;;3.08;1.40;;;;;;;21.29;59.12;102012.78;5061956;28;20045;-63
2023/08/16 09:13:10;;;;;;;5.70;1.58;;;;;;;21.29;59.28;102021.81;5055663;27;20106;-63
2023/08/16 09:15:37;;;;;;;3.38;1.67;;;;;;;21.30;59.21;102023.47;5042094;28;20050;-63
2023/08/16 09:18:08;;;;;;;3.95;1.60;;;;;;;21.31;59.35;102016.06;5041555;28;20479;-63
2023/08/16 09:20:37;;;;;;;2.85;1.55;;;;;;;21.31;59.14;102016.91;5025676;28;20080;-63
2023/08/16 09:23:05;;;;;;;4.25;1.80;;;;;;;21.32;59.39;102009.53;5029429;28;20372;-63
2023/08/16 09:25:33;;;;;;;2.60;1.30;;;;;;;21.34;59.59;102018.28;5045112;28;20061;-62
2023/08/16 09:28:01;;;;;;;2.55;1.45;;;;;;;21.35;59.25;102014.47;5053984;27;20065;-62
2023/08/16 09:30:31;;;;;;;4.80;1.50;;;;;;;21.37;59.55;102024.03;5045211;28;20410;-62
2023/08/16 09:32:59;;;;;;;4.03;1.40;;;;;;;21.38;59.62;102017.47;5049245;28;20044;-63
2023/08/16 09:35:28;;;;;;;3.60;1.13;;;;;;;21.40;59.55;102018.03;5045750;28;20116;-62
2023/08/16 09:37:57;;;;;;;5.78;1.60;;;;;;;21.41;59.43;102013.41;5118802;27;20047;-63
2023/08/16 09:40:25;;;;;;;5.85;1.50;;;;;;;21.43;59.55;102020.25;5149902;27;20493;-63
2023/08/16 09:42:53;;;;;;;5.70;1.90;;;;;;;21.42;59.64;102004.94;5092546;27;20052;-63
2023/08/16 09:45:28;;;;;;;3.42;1.70;;;;;;;21.46;59.61;102005.22;5065040;28;20106;-63
2023/08/16 09:47:59;;;;;;;5.55;1.75;;;;;;;21.46;59.63;102009.88;5063414;28;20079;-62
2023/08/16 09:50:28;;;;;;;3.88;1.70;;;;;;;21.48;59.68;102007.69;5052154;28;20049;-62
2023/08/16 09:52:58;;;;;;;2.55;1.42;;;;;;;21.50;59.53;102010.97;5044580;28;20114;-62
2023/08/16 09:55:28;;;;;;;2.08;1.40;;;;;;;21.50;59.80;102006.34;5059676;28;20048;-63
2023/08/16 09:57:58;;;;;;;3.78;1.67;;;;;;;21.52;59.64;102009.63;5064664;28;20106;-62
2023/08/16 10:00:27;;;;;;;3.55;1.77;;;;;;;21.51;59.70;102007.97;5064884;28;20053;-63
2023/08/16 10:02:56;;;;;;;4.75;1.90;;;;;;;21.54;59.78;102014.81;5062975;28;20048;-62
2023/08/16 10:05:26;;;;;;;4.40;1.50;;;;;;;21.54;59.80;102010.19;5055769;28;20078;-62
2023/08/16 10:08:13;;;;;;;4.97;1.70;;;;;;;21.55;59.81;102006.34;5044778;28;20419;-63
2023/08/16 10:10:43;;;;;;;2.65;1.30;;;;;;;21.57;59.79;102003.34;5043993;28;20053;-63
2023/08/16 10:13:11;;;;;;;5.00;1.60;;;;;;;21.58;60.05;101999.53;5029176;28;20109;-62
2023/08/16 10:15:43;;;;;;;6.32;1.90;;;;;;;21.60;59.96;102008.28;5055958;28;20486;-62
2023/08/16 10:18:13;;;;;;;5.55;2.33;;;;;;;21.60;59.90;102003.63;5063997;27;20053;-62
2023/08/16 10:20:47;;;;;;;4.22;1.50;;;;;;;21.61;59.58;101999.81;5064624;28;20048;-63
2023/08/16 10:23:19;;;;;;;6.95;1.73;;;;;;;21.62;59.84;102004.19;5050314;28;20053;-63
2023/08/16 10:25:52;;;;;;;7.35;1.98;;;;;;;21.63;59.83;101996.81;5043778;28;20045;-62
2023/08/16 10:28:22;;;;;;;4.97;1.73;;;;;;;21.63;59.84;101996.81;5038923;28;20096;-63
2023/08/16 10:30:55;;;;;;;8.20;1.67;;;;;;;21.64;59.95;101995.72;5043757;28;20057;-63
2023/08/16 10:33:30;;;;;;;3.00;1.55;;;;;;;21.67;60.08;101993.28;5051314;28;20106;-62
2023/08/16 10:36:02;;;;;;;3.40;1.92;;;;;;;21.68;60.00;101994.09;5064388;28;20056;-63
2023/08/16 10:38:36;;;;;;;3.22;1.50;;;;;;;21.69;59.79;101993.00;5045461;28;20049;-63
2023/08/16 10:41:11;;;;;;;4.03;1.73;;;;;;;21.70;59.82;101991.91;5043182;28;20510;-63
2023/08/16 10:43:47;;;;;;;4.55;1.88;;;;;;;21.71;59.76;101996.28;5024131;28;20285;-63
2023/08/16 10:46:28;;;;;;;6.88;2.03;;;;;;;21.71;59.77;101997.13;5024182;28;20045;-62
2023/08/16 10:48:57;;;;;;;7.35;2.03;;;;;;;21.74;59.85;101993.03;5027696;28;20054;-62
2023/08/16 10:51:31;;;;;;;6.00;1.85;;;;;;;21.74;60.22;101991.09;5044071;28;20050;-62
2023/08/16 10:53:59;;;;;;;5.07;1.90;;;;;;;21.75;59.96;101989.19;5043578;28;20042;-62
2023/08/16 10:56:37;;;;;;;6.25;1.80;;;;;;;21.76;59.86;101988.09;5043626;28;20487;-63
2023/08/16 10:59:07;;;;;;;3.50;1.48;;;;;;;21.76;59.90;101988.09;5043991;28;20132;-63
2023/08/16 11:01:35;;;;;;;4.20;1.92;;;;;;;21.79;59.78;101989.47;5043843;28;20053;-63
2023/08/16 11:04:07;;;;;;;3.30;1.90;;;;;;;21.80;59.96;101980.19;5043579;28;20090;-63
2023/08/16 11:06:39;;;;;;;5.00;2.10;;;;;;;21.81;60.16;101990.84;5043506;28;20049;-63
2023/08/16 11:09:15;;;;;;;6.53;2.25;;;;;;;21.82;60.01;101992.50;5043774;28;20050;-63
2023/08/16 11:11:45;;;;;;;4.18;1.70;;;;;;;21.84;60.08;101994.97;5043178;28;20143;-63
2023/08/16 11:14:13;;;;;;;4.53;2.00;;;;;;;21.84;59.81;101993.06;5043350;28;20411;-63
2023/08/16 11:16:41;;;;;;;3.65;1.42;;;;;;;21.86;60.10;101992.78;5043398;28;20049;-63
2023/08/16 11:19:11;;;;;;;4.97;2.13;;;;;;;21.88;60.27;101993.34;5055984;28;20506;-63
2023/08/16 11:21:46;;;;;;;7.68;1.80;;;;;;;21.89;60.18;101992.25;5063715;28;20078;-63
2023/08/16 11:24:15;;;;;;;4.65;1.60;;;;;;;21.90;59.96;101993.88;5050507;28;20050;-63
2023/08/16 11:26:42;;;;;;;8.05;1.77;;;;;;;21.91;60.18;101988.13;5045892;27;20057;-62
2023/08/16 11:29:10;;;;;;;3.67;1.55;;;;;;;21.92;59.90;101984.31;5067230;27;20074;-62
2023/08/16 11:31:38;;;;;;;7.55;1.83;;;;;;;21.94;60.08;101979.38;5063064;27;20101;-63